createdAt,value
2018-04-11T00:00:40.260Z,0
2018-04-11T00:01:40.254Z,0
2018-04-11T00:02:40.295Z,0
2018-04-11T00:03:40.245Z,0
2018-04-11T00:04:40.317Z,0
2018-04-11T00:05:40.485Z,0
2018-04-11T00:06:40.506Z,0
2018-04-11T00:07:40.237Z,0
2018-04-11T00:08:40.265Z,0
2018-04-11T00:09:40.483Z,0
2018-04-11T00:10:40.245Z,0
2018-04-11T00:11:39.966Z,0
2018-04-11T00:12:40.472Z,0
2018-04-11T00:13:40.462Z,0
2018-04-11T00:14:40.216Z,0
2018-04-11T00:15:40.447Z,0
2018-04-11T00:16:39.948Z,0
2018-04-11T00:17:43.699Z,0
2018-04-11T00:18:39.963Z,0
2018-04-11T00:19:40.436Z,0
2018-04-11T00:20:40.471Z,0
2018-04-11T00:21:40.457Z,0
2018-04-11T00:22:39.998Z,0
2018-04-11T00:23:40.416Z,0
2018-04-11T00:24:39.717Z,0
2018-04-11T00:25:40.156Z,0
2018-04-11T00:26:39.937Z,0
2018-04-11T00:27:39.914Z,0
2018-04-11T00:28:40.416Z,0
2018-04-11T00:29:40.164Z,0
2018-04-11T00:30:40.167Z,0
2018-04-11T00:31:40.444Z,0
2018-04-11T00:32:40.454Z,0
2018-04-11T00:33:40.603Z,0
2018-04-11T00:34:39.931Z,0
2018-04-11T00:35:40.374Z,0
2018-04-11T00:36:39.872Z,0
2018-04-11T00:37:39.862Z,0
2018-04-11T00:38:40.101Z,0
2018-04-11T00:39:39.866Z,0
2018-04-11T00:40:39.867Z,0
2018-04-11T00:41:40.107Z,0
2018-04-11T00:42:39.335Z,0
2018-04-11T00:43:39.860Z,0
2018-04-11T00:44:40.093Z,0
2018-04-11T00:45:39.834Z,0
2018-04-11T00:46:39.827Z,0
2018-04-11T00:47:40.082Z,0
2018-04-11T00:48:45.610Z,0
2018-04-11T00:49:39.575Z,0
2018-04-11T00:50:40.310Z,0
2018-04-11T00:51:40.336Z,0
2018-04-11T00:52:40.071Z,0
2018-04-11T00:53:40.063Z,0
2018-04-11T00:54:40.069Z,0
2018-04-11T00:55:40.102Z,0
2018-04-11T00:56:40.286Z,0
2018-04-11T00:57:40.277Z,0
2018-04-11T00:58:40.044Z,0
2018-04-11T00:59:40.024Z,0
2018-04-11T01:00:40.267Z,0
2018-04-11T01:01:40.011Z,0
2018-04-11T01:02:40.279Z,0
2018-04-11T01:03:39.746Z,0
2018-04-11T01:04:40.338Z,0
2018-04-11T01:05:39.992Z,0
2018-04-11T01:06:39.992Z,0
2018-04-11T01:07:40.005Z,0
2018-04-11T01:08:39.724Z,0
2018-04-11T01:09:40.229Z,0
2018-04-11T01:10:39.715Z,0
2018-04-11T01:11:39.968Z,0
2018-04-11T01:12:39.453Z,0
2018-04-11T01:13:39.953Z,0
2018-04-11T01:14:40.209Z,0
2018-04-11T01:15:39.690Z,0
2018-04-11T01:16:39.432Z,0
2018-04-11T01:17:39.458Z,0
2018-04-11T01:18:41.285Z,0
2018-04-11T01:19:39.686Z,0
2018-04-11T01:20:39.980Z,0
2018-04-11T01:21:39.676Z,0
2018-04-11T01:22:40.214Z,0
2018-04-11T01:23:40.175Z,0
2018-04-11T01:24:40.166Z,0
2018-04-11T01:25:40.088Z,0
2018-04-11T01:26:40.171Z,0
2018-04-11T01:27:39.884Z,0
2018-04-11T01:28:39.891Z,0
2018-04-11T01:29:40.146Z,0
2018-04-11T01:30:40.168Z,0
2018-04-11T01:31:39.899Z,0
2018-04-11T01:32:39.891Z,0
2018-04-11T01:33:39.625Z,0
2018-04-11T01:34:39.624Z,0
2018-04-11T01:35:39.628Z,0
2018-04-11T01:36:39.861Z,0
2018-04-11T01:37:39.095Z,0
2018-04-11T01:38:39.596Z,0
2018-04-11T01:39:39.583Z,0
2018-04-11T01:40:40.091Z,0
2018-04-11T01:41:39.608Z,0
2018-04-11T01:42:40.069Z,0
2018-04-11T01:43:39.829Z,0
2018-04-11T01:44:40.079Z,0
2018-04-11T01:45:40.077Z,0
2018-04-11T01:46:39.808Z,0
2018-04-11T01:47:40.079Z,0
2018-04-11T01:48:40.052Z,0
2018-04-11T01:49:43.482Z,0
2018-04-11T01:50:40.059Z,0
2018-04-11T01:51:40.045Z,0
2018-04-11T01:52:40.046Z,0
2018-04-11T01:53:39.526Z,0
2018-04-11T01:54:39.767Z,0
2018-04-11T01:55:40.008Z,0
2018-04-11T01:56:39.536Z,0
2018-04-11T01:57:40.000Z,0
2018-04-11T01:58:40.049Z,0
2018-04-11T01:59:40.000Z,0
2018-04-11T02:00:39.745Z,0
2018-04-11T02:01:39.490Z,0
2018-04-11T02:02:39.552Z,0
2018-04-11T02:03:39.998Z,0
2018-04-11T02:04:41.877Z,0
2018-04-11T02:05:39.750Z,0
2018-04-11T02:06:39.958Z,0
2018-04-11T02:07:39.713Z,0
2018-04-11T02:08:39.498Z,0
2018-04-11T02:09:40.091Z,0
2018-04-11T02:10:40.020Z,0
2018-04-11T02:11:39.187Z,0
2018-04-11T02:12:39.445Z,0
2018-04-11T02:13:39.692Z,0
2018-04-11T02:14:39.420Z,0
2018-04-11T02:15:39.414Z,0
2018-04-11T02:16:39.421Z,0
2018-04-11T02:17:39.906Z,0
2018-04-11T02:18:39.665Z,0
2018-04-11T02:19:43.419Z,0
2018-04-11T02:20:39.392Z,0
2018-04-11T02:21:39.401Z,0
2018-04-11T02:22:39.893Z,0
2018-04-11T02:23:39.887Z,0
2018-04-11T02:24:39.626Z,0
2018-04-11T02:25:39.681Z,0
2018-04-11T02:26:39.608Z,0
2018-04-11T02:27:39.859Z,0
2018-04-11T02:28:39.587Z,0
2018-04-11T02:29:39.612Z,0
2018-04-11T02:30:39.588Z,0
2018-04-11T02:31:39.587Z,0
2018-04-11T02:32:39.859Z,0
2018-04-11T02:33:39.585Z,0
2018-04-11T02:34:39.073Z,0
2018-04-11T02:35:39.817Z,0
2018-04-11T02:36:39.831Z,0
2018-04-11T02:37:39.814Z,0
2018-04-11T02:38:39.561Z,0
2018-04-11T02:39:39.802Z,0
2018-04-11T02:40:39.800Z,0
2018-04-11T02:41:39.806Z,0
2018-04-11T02:42:39.539Z,0
2018-04-11T02:43:39.803Z,0
2018-04-11T02:44:39.791Z,0
2018-04-11T02:45:39.281Z,0
2018-04-11T02:46:39.505Z,0
2018-04-11T02:47:39.021Z,0
2018-04-11T02:48:39.260Z,0
2018-04-11T02:49:39.747Z,0
2018-04-11T02:50:40.039Z,0
2018-04-11T02:51:39.739Z,0
2018-04-11T02:52:39.224Z,0
2018-04-11T02:53:39.504Z,0
2018-04-11T02:54:39.240Z,0
2018-04-11T02:55:39.719Z,0
2018-04-11T02:56:39.244Z,0
2018-04-11T02:57:39.479Z,0
2018-04-11T02:58:39.703Z,0
2018-04-11T02:59:39.748Z,0
2018-04-11T03:00:39.700Z,0
2018-04-11T03:01:39.463Z,0
2018-04-11T03:02:39.190Z,0
2018-04-11T03:03:39.697Z,0
2018-04-11T03:04:39.424Z,0
2018-04-11T03:05:39.670Z,0
2018-04-11T03:06:39.423Z,0
2018-04-11T03:07:39.192Z,0
2018-04-11T03:08:39.654Z,0
2018-04-11T03:09:39.140Z,0
2018-04-11T03:10:39.401Z,0
2018-04-11T03:11:39.430Z,0
2018-04-11T03:12:39.375Z,0
2018-04-11T03:13:39.374Z,0
2018-04-11T03:14:39.124Z,0
2018-04-11T03:15:38.864Z,0
2018-04-11T03:16:39.613Z,0
2018-04-11T03:17:39.356Z,0
2018-04-11T03:18:39.097Z,0
2018-04-11T03:19:39.592Z,0
2018-04-11T03:20:42.843Z,0
2018-04-11T03:21:39.578Z,0
2018-04-11T03:22:39.579Z,0
2018-04-11T03:23:39.087Z,0
2018-04-11T03:24:39.574Z,0
2018-04-11T03:25:39.334Z,0
2018-04-11T03:26:39.054Z,0
2018-04-11T03:27:39.548Z,0
2018-04-11T03:28:39.282Z,0
2018-04-11T03:29:39.280Z,0
2018-04-11T03:37:36.651Z,0
2018-04-11T03:37:59.885Z,0
2018-04-11T03:38:59.877Z,0
2018-04-11T03:39:59.633Z,0
2018-04-11T03:40:59.373Z,0
2018-04-11T03:41:59.844Z,0
2018-04-11T03:42:59.592Z,0
2018-04-11T03:43:59.327Z,0
2018-04-11T03:44:59.833Z,0
2018-04-11T03:45:59.818Z,0
2018-04-11T03:46:59.805Z,0
2018-04-11T03:47:59.309Z,0
2018-04-11T03:48:59.174Z,0
2018-04-11T03:49:59.542Z,0
2018-04-11T03:50:59.289Z,0
2018-04-11T03:51:59.527Z,0
2018-04-11T03:53:03.069Z,0
2018-04-11T03:53:59.527Z,0
2018-04-11T03:54:59.791Z,0
2018-04-11T03:55:59.750Z,0
2018-04-11T03:56:59.760Z,0
2018-04-11T03:57:59.244Z,0
2018-04-11T03:58:59.242Z,0
2018-04-11T03:59:59.494Z,0
2018-04-11T04:00:59.482Z,0
2018-04-11T04:01:59.726Z,0
2018-04-11T04:02:59.228Z,0
2018-04-11T04:03:59.722Z,0
2018-04-11T04:04:59.718Z,0
2018-04-11T04:05:59.444Z,0
2018-04-11T04:06:59.436Z,0
2018-04-11T04:08:00.495Z,0
2018-04-11T04:08:59.702Z,0
2018-04-11T04:09:59.448Z,0
2018-04-11T04:10:59.659Z,0
2018-04-11T04:11:59.420Z,0
2018-04-11T04:12:59.730Z,0
2018-04-11T04:13:59.855Z,0
2018-04-11T04:14:59.164Z,0
2018-04-11T04:15:59.649Z,0
2018-04-11T04:16:59.144Z,0
2018-04-11T04:17:59.638Z,0
2018-04-11T04:18:59.374Z,0
2018-04-11T04:19:59.225Z,0
2018-04-11T04:20:59.113Z,0
2018-04-11T04:21:59.604Z,0
2018-04-11T04:22:58.799Z,0
2018-04-11T04:23:59.126Z,0
2018-04-11T04:24:59.106Z,0
2018-04-11T04:25:59.580Z,0
2018-04-11T04:26:59.329Z,0
2018-04-11T04:27:59.325Z,0
2018-04-11T04:28:59.328Z,0
2018-04-11T04:29:58.821Z,0
2018-04-11T04:30:59.303Z,0
2018-04-11T04:31:59.308Z,0
2018-04-11T04:32:59.306Z,0
2018-04-11T04:33:59.049Z,0
2018-04-11T04:34:59.537Z,0
2018-04-11T04:35:59.523Z,0
2018-04-11T04:36:59.027Z,5
2018-04-11T04:37:59.017Z,5
2018-04-11T04:38:59.245Z,5
2018-04-11T04:39:59.340Z,5
2018-04-11T04:40:59.326Z,5
2018-04-11T04:41:59.234Z,5
2018-04-11T04:42:59.497Z,10
2018-04-11T04:43:59.479Z,10
2018-04-11T04:44:58.965Z,10
2018-04-11T04:45:59.473Z,10
2018-04-11T04:46:59.213Z,10
2018-04-11T04:47:59.481Z,15
2018-04-11T04:48:58.937Z,15
2018-04-11T04:49:59.193Z,15
2018-04-11T04:50:58.928Z,15
2018-04-11T04:51:59.176Z,20
2018-04-11T04:52:59.450Z,20
2018-04-11T04:54:01.509Z,20
2018-04-11T04:54:59.161Z,25
2018-04-11T04:55:59.159Z,25
2018-04-11T04:56:59.404Z,25
2018-04-11T04:57:58.891Z,25
2018-04-11T04:58:59.146Z,30
2018-04-11T04:59:59.383Z,30
2018-04-11T05:00:59.385Z,30
2018-04-11T05:01:59.388Z,35
2018-04-11T05:02:59.389Z,35
2018-04-11T05:03:59.357Z,35
2018-04-11T05:04:59.108Z,40
2018-04-11T05:05:59.116Z,45
2018-04-11T05:06:59.090Z,50
2018-04-11T05:07:59.399Z,65
2018-04-11T05:08:59.075Z,70
2018-04-11T05:09:59.075Z,70
2018-04-11T05:10:58.589Z,70
2018-04-11T05:11:59.407Z,60
2018-04-11T05:12:59.056Z,65
2018-04-11T05:13:58.825Z,65
2018-04-11T05:14:59.307Z,70
2018-04-11T05:15:59.288Z,65
2018-04-11T05:16:58.308Z,60
2018-04-11T05:17:58.792Z,70
2018-04-11T05:18:59.058Z,85
2018-04-11T05:19:59.295Z,100
2018-04-11T05:20:59.036Z,110
2018-04-11T05:21:59.326Z,115
2018-04-11T05:22:59.254Z,115
2018-04-11T05:24:00.063Z,125
2018-04-11T05:24:59.022Z,140
2018-04-11T05:25:59.234Z,140
2018-04-11T05:26:59.246Z,130
2018-04-11T05:27:59.236Z,135
2018-04-11T05:28:59.024Z,140
2018-04-11T05:29:58.993Z,150
2018-04-11T05:30:58.761Z,155
2018-04-11T05:31:59.215Z,155
2018-04-11T05:32:58.757Z,155
2018-04-11T05:33:59.266Z,110
2018-04-11T05:34:58.964Z,155
2018-04-11T05:35:58.981Z,160
2018-04-11T05:36:58.970Z,170
2018-04-11T05:37:58.990Z,175
2018-04-11T05:38:58.963Z,180
2018-04-11T05:39:59.286Z,190
2018-04-11T05:40:58.518Z,195
2018-04-11T05:41:59.219Z,195
2018-04-11T05:42:58.972Z,110
2018-04-11T05:43:58.779Z,115
2018-04-11T05:44:58.712Z,190
2018-04-11T05:45:58.957Z,190
2018-04-11T05:46:58.718Z,195
2018-04-11T05:47:59.301Z,190
2018-04-11T05:48:58.960Z,195
2018-04-11T05:49:58.934Z,190
2018-04-11T05:50:58.700Z,190
2018-04-11T05:51:58.938Z,180
2018-04-11T05:52:58.985Z,175
2018-04-11T05:54:01.348Z,160
2018-04-11T05:54:58.704Z,155
2018-04-11T05:55:59.193Z,155
2018-04-11T05:56:58.963Z,145
2018-04-11T05:57:58.440Z,145
2018-04-11T05:58:58.690Z,140
2018-04-11T05:59:59.175Z,140
2018-04-11T06:00:59.319Z,140
2018-04-11T06:01:58.938Z,140
2018-04-11T06:02:59.189Z,155
2018-04-11T06:03:59.188Z,135
2018-04-11T06:04:59.187Z,140
2018-04-11T06:05:58.791Z,140
2018-04-11T06:06:58.695Z,145
2018-04-11T06:07:58.925Z,145
2018-04-11T06:08:58.936Z,145
2018-04-11T06:10:00.553Z,145
2018-04-11T06:10:58.916Z,145
2018-04-11T06:11:58.691Z,145
2018-04-11T06:22:17.279Z,185
2018-04-11T06:23:17.509Z,195
2018-04-11T06:24:17.248Z,205
2018-04-11T06:25:19.582Z,210
2018-04-11T06:26:17.487Z,220
2018-04-11T06:27:17.739Z,240
2018-04-11T06:28:17.924Z,260
2018-04-11T06:29:17.730Z,265
2018-04-11T06:30:19.294Z,275
2018-04-11T06:31:17.463Z,280
2018-04-11T06:32:17.726Z,285
2018-04-11T06:33:17.205Z,290
2018-04-11T06:34:17.705Z,290
2018-04-11T06:35:19.146Z,295
2018-04-11T06:36:17.743Z,295
2018-04-11T06:37:17.708Z,295
2018-04-11T06:38:17.205Z,295
2018-04-11T06:39:17.262Z,300
2018-04-11T06:40:19.191Z,300
2018-04-11T06:41:17.450Z,300
2018-04-11T06:42:17.766Z,300
2018-04-11T06:43:17.492Z,300
2018-04-11T06:44:17.474Z,305
2018-04-11T06:45:19.506Z,310
2018-04-11T06:46:17.321Z,305
2018-04-11T06:47:17.259Z,305
2018-04-11T06:48:17.468Z,310
2018-04-11T06:49:17.473Z,310
2018-04-11T06:50:19.132Z,315
2018-04-11T06:51:17.496Z,315
2018-04-11T06:52:17.494Z,325
2018-04-11T06:53:17.498Z,320
2018-04-11T06:54:17.498Z,320
2018-04-11T06:55:19.482Z,320
2018-04-11T06:56:17.254Z,325
2018-04-11T06:57:18.714Z,325
2018-04-11T06:58:17.549Z,325
2018-04-11T06:59:17.759Z,325
2018-04-11T07:00:19.830Z,325
2018-04-11T07:01:17.530Z,330
2018-04-11T07:02:17.533Z,330
2018-04-11T07:03:17.774Z,330
2018-04-11T07:04:17.528Z,330
2018-04-11T07:05:19.181Z,330
2018-04-11T07:06:17.793Z,335
2018-04-11T07:07:17.307Z,335
2018-04-11T07:08:17.814Z,335
2018-04-11T07:09:17.805Z,335
2018-04-11T07:10:18.966Z,335
2018-04-11T07:11:17.563Z,340
2018-04-11T07:12:18.132Z,340
2018-04-11T07:13:17.832Z,325
2018-04-11T07:14:17.946Z,310
2018-04-11T07:15:19.085Z,295
2018-04-11T07:16:17.872Z,285
2018-04-11T07:17:17.838Z,285
2018-04-11T07:18:17.604Z,280
2018-04-11T07:19:17.846Z,270
2018-04-11T07:20:19.008Z,270
2018-04-11T07:21:17.877Z,270
2018-04-11T07:22:17.621Z,260
2018-04-11T07:23:17.624Z,245
2018-04-11T07:24:17.636Z,240
2018-04-11T07:25:19.644Z,230
2018-04-11T07:26:17.890Z,230
2018-04-11T07:27:21.907Z,230
2018-04-11T07:28:17.909Z,250
2018-04-11T07:29:17.391Z,285
2018-04-11T07:30:20.013Z,305
2018-04-11T07:31:17.894Z,310
2018-04-11T07:32:17.911Z,315
2018-04-11T07:33:17.920Z,315
2018-04-11T07:34:17.671Z,310
2018-04-11T07:35:19.260Z,315
2018-04-11T07:36:17.918Z,315
2018-04-11T07:37:17.666Z,310
2018-04-11T07:38:17.419Z,310
2018-04-11T07:39:17.921Z,310
2018-04-11T07:40:19.157Z,310
2018-04-11T07:41:17.935Z,310
2018-04-11T07:42:17.941Z,305
2018-04-11T07:43:17.710Z,305
2018-04-11T07:44:17.696Z,300
2018-04-11T07:45:19.585Z,305
2018-04-11T07:46:17.951Z,285
2018-04-11T07:47:17.733Z,285
2018-04-11T07:48:17.995Z,275
2018-04-11T07:49:17.732Z,260
2018-04-11T07:50:19.216Z,245
2018-04-11T07:51:17.730Z,240
2018-04-11T07:52:17.737Z,240
2018-04-11T07:53:17.747Z,235
2018-04-11T07:54:17.990Z,235
2018-04-11T07:55:18.923Z,235
2018-04-11T07:56:17.747Z,235
2018-04-11T07:57:19.558Z,240
2018-04-11T07:58:17.766Z,235
2018-04-11T07:59:17.758Z,235
2018-04-11T08:00:19.792Z,230
2018-04-11T08:01:17.528Z,230
2018-04-11T08:02:17.768Z,270
2018-04-11T08:03:18.023Z,275
2018-04-11T08:04:17.774Z,275
2018-04-11T08:05:19.646Z,280
2018-04-11T08:06:17.789Z,255
2018-04-11T08:07:17.594Z,300
2018-04-11T08:08:17.791Z,295
2018-04-11T08:09:18.059Z,295
2018-04-11T08:10:18.514Z,295
2018-04-11T08:11:18.050Z,285
2018-04-11T08:12:17.796Z,290
2018-04-11T08:13:17.793Z,290
2018-04-11T08:14:18.070Z,290
2018-04-11T08:15:19.263Z,290
2018-04-11T08:16:17.585Z,295
2018-04-11T08:17:17.835Z,290
2018-04-11T08:18:17.887Z,290
2018-04-11T08:19:17.597Z,290
2018-04-11T08:20:19.803Z,290
2018-04-11T08:21:17.852Z,295
2018-04-11T08:22:17.841Z,295
2018-04-11T08:23:18.274Z,290
2018-04-11T08:24:17.855Z,290
2018-04-11T08:25:19.173Z,290
2018-04-11T08:26:17.874Z,290
2018-04-11T08:27:22.420Z,285
2018-04-11T08:28:17.625Z,280
2018-04-11T08:29:17.884Z,280
2018-04-11T08:30:19.927Z,265
2018-04-11T08:31:17.891Z,285
2018-04-11T08:32:18.141Z,285
2018-04-11T08:33:17.906Z,285
2018-04-11T08:34:17.659Z,285
2018-04-11T08:35:19.975Z,280
2018-04-11T08:36:17.706Z,280
2018-04-11T08:37:17.687Z,285
2018-04-11T08:38:18.173Z,275
2018-04-11T08:39:18.181Z,270
2018-04-11T08:40:19.934Z,265
2018-04-11T08:41:17.944Z,265
2018-04-11T08:42:18.196Z,260
2018-04-11T08:43:17.947Z,265
2018-04-11T08:44:18.169Z,265
2018-04-11T08:45:20.103Z,265
2018-04-11T08:46:17.967Z,265
2018-04-11T08:47:18.265Z,265
2018-04-11T08:48:17.726Z,265
2018-04-11T08:49:17.578Z,265
2018-04-11T08:50:19.908Z,265
2018-04-11T08:51:18.268Z,265
2018-04-11T08:52:17.739Z,265
2018-04-11T08:53:17.979Z,265
2018-04-11T08:54:17.991Z,265
2018-04-11T08:55:20.080Z,265
2018-04-11T08:56:18.010Z,265
2018-04-11T08:57:18.244Z,265
2018-04-11T08:58:17.989Z,265
2018-04-11T08:59:18.249Z,265
2018-04-11T09:00:19.532Z,270
2018-04-11T09:01:17.785Z,265
2018-04-11T09:02:18.006Z,270
2018-04-11T09:03:18.259Z,270
2018-04-11T09:04:17.781Z,270
2018-04-11T09:05:20.196Z,265
2018-04-11T09:06:18.030Z,265
2018-04-11T09:07:17.510Z,265
2018-04-11T09:08:17.788Z,270
2018-04-11T09:09:17.541Z,275
2018-04-11T09:10:19.073Z,275
2018-04-11T09:11:17.768Z,270
2018-04-11T09:12:17.541Z,270
2018-04-11T09:13:21.712Z,270
2018-04-11T09:14:17.786Z,270
2018-04-11T09:15:19.994Z,270
2018-04-11T09:16:18.061Z,270
2018-04-11T09:17:18.344Z,265
2018-04-11T09:18:18.033Z,265
2018-04-11T09:19:18.023Z,265
2018-04-11T09:20:19.562Z,265
2018-04-11T09:21:18.059Z,265
2018-04-11T09:22:18.296Z,270
2018-04-11T09:23:18.053Z,265
2018-04-11T09:24:18.287Z,265
2018-04-11T09:25:19.093Z,265
2018-04-11T09:26:17.821Z,265
2018-04-11T09:27:17.794Z,260
2018-04-11T09:28:18.825Z,260
2018-04-11T09:29:18.082Z,260
2018-04-11T09:30:19.799Z,260
2018-04-11T09:31:17.868Z,260
2018-04-11T09:32:18.069Z,260
2018-04-11T09:33:18.512Z,260
2018-04-11T09:34:18.282Z,260
2018-04-11T09:35:19.723Z,260
2018-04-11T09:36:18.047Z,260
2018-04-11T09:37:17.791Z,260
2018-04-11T09:38:18.100Z,260
2018-04-11T09:39:17.788Z,255
2018-04-11T09:40:20.120Z,255
2018-04-11T09:41:17.799Z,255
2018-04-11T09:42:18.126Z,255
2018-04-11T09:43:18.040Z,255
2018-04-11T09:44:18.037Z,250
2018-04-11T09:45:20.045Z,250
2018-04-11T09:46:18.071Z,250
2018-04-11T09:47:18.341Z,250
2018-04-11T09:48:18.316Z,250
2018-04-11T09:49:18.313Z,245
2018-04-11T09:50:19.315Z,245
2018-04-11T09:51:18.113Z,245
2018-04-11T09:52:18.315Z,245
2018-04-11T09:53:18.303Z,245
2018-04-11T09:54:18.314Z,245
2018-04-11T09:55:19.869Z,245
2018-04-11T09:56:18.051Z,245
2018-04-11T09:57:18.303Z,240
2018-04-11T09:58:18.381Z,240
2018-04-11T09:59:17.857Z,240
2018-04-11T10:00:19.947Z,240
2018-04-11T10:01:18.056Z,240
2018-04-11T10:02:18.320Z,240
2018-04-11T10:03:18.078Z,240
2018-04-11T10:04:17.824Z,240
2018-04-11T10:05:19.034Z,235
2018-04-11T10:06:18.109Z,235
2018-04-11T10:07:18.100Z,235
2018-04-11T10:08:18.113Z,235
2018-04-11T10:09:18.324Z,235
2018-04-11T10:10:19.036Z,235
2018-04-11T10:11:18.331Z,235
2018-04-11T10:12:18.323Z,235
2018-04-11T10:13:18.584Z,235
2018-04-11T10:14:18.093Z,235
2018-04-11T10:15:19.633Z,235
2018-04-11T10:16:18.331Z,235
2018-04-11T10:17:18.096Z,235
2018-04-11T10:18:18.084Z,235
2018-04-11T10:19:18.131Z,235
2018-04-11T10:20:20.158Z,235
2018-04-11T10:21:18.196Z,235
2018-04-11T10:22:18.335Z,235
2018-04-11T10:53:02.526Z,215
2018-04-11T10:54:02.508Z,215
2018-04-11T10:55:02.538Z,215
2018-04-11T10:56:02.045Z,215
2018-04-11T10:57:01.740Z,210
2018-04-11T10:58:01.991Z,210
2018-04-11T10:59:02.492Z,210
2018-04-11T11:00:02.479Z,210
2018-04-11T11:01:02.255Z,210
2018-04-11T11:02:01.727Z,210
2018-04-11T11:03:02.237Z,210
2018-04-11T11:04:02.222Z,210
2018-04-11T11:05:01.967Z,215
2018-04-11T11:06:02.215Z,205
2018-04-11T11:07:02.226Z,205
2018-04-11T11:08:02.221Z,205
2018-04-11T11:09:02.227Z,205
2018-04-11T11:10:02.481Z,205
2018-04-11T11:11:02.218Z,205
2018-04-11T11:12:02.264Z,210
2018-04-11T11:13:02.471Z,205
2018-04-11T11:14:02.473Z,205
2018-04-11T11:15:02.235Z,205
2018-04-11T11:16:01.975Z,205
2018-04-11T11:17:02.479Z,205
2018-04-11T11:18:02.242Z,200
2018-04-11T11:19:02.481Z,200
2018-04-11T11:20:02.478Z,200
2018-04-11T11:21:01.977Z,205
2018-04-11T11:22:01.727Z,200
2018-04-11T11:23:03.123Z,205
2018-04-11T11:24:02.478Z,200
2018-04-11T11:25:02.248Z,200
2018-04-11T11:26:02.488Z,200
2018-04-11T11:27:02.483Z,200
2018-04-11T11:28:02.255Z,205
2018-04-11T11:29:02.228Z,200
2018-04-11T11:30:02.015Z,205
2018-04-11T11:31:02.478Z,200
2018-04-11T11:32:02.237Z,200
2018-04-11T11:33:02.479Z,205
2018-04-11T11:34:02.494Z,205
2018-04-11T11:35:02.273Z,205
2018-04-11T11:36:02.489Z,200
2018-04-11T11:37:02.480Z,195
2018-04-11T11:38:03.844Z,195
2018-04-11T11:39:02.242Z,195
2018-04-11T11:40:01.736Z,195
2018-04-11T11:41:02.244Z,195
2018-04-11T11:42:02.528Z,200
2018-04-11T11:43:02.005Z,195
2018-04-11T11:44:02.243Z,195
2018-04-11T11:45:02.514Z,195
2018-04-11T11:46:02.649Z,195
2018-04-11T11:47:01.995Z,195
2018-04-11T11:48:02.538Z,195
2018-04-11T11:49:02.497Z,195
2018-04-11T11:50:02.243Z,195
2018-04-11T11:51:02.274Z,195
2018-04-11T11:52:02.522Z,195
2018-04-11T11:53:03.044Z,195
2018-04-11T11:54:02.495Z,195
2018-04-11T11:55:02.000Z,195
2018-04-11T11:56:02.021Z,195
2018-04-11T11:57:02.523Z,195
2018-04-11T11:58:02.252Z,195
2018-04-11T11:59:02.011Z,195
2018-04-11T12:00:02.251Z,195
2018-04-11T12:01:02.358Z,195
2018-04-11T12:02:02.017Z,195
2018-04-11T12:03:02.528Z,195
2018-04-11T12:04:02.064Z,195
2018-04-11T12:05:01.860Z,195
2018-04-11T12:06:02.029Z,195
2018-04-11T12:07:02.534Z,195
2018-04-11T12:08:03.274Z,195
2018-04-11T12:09:02.268Z,195
2018-04-11T12:10:02.535Z,195
2018-04-11T12:11:02.589Z,195
2018-04-11T12:12:02.768Z,195
2018-04-11T12:13:02.867Z,195
2018-04-11T12:14:01.777Z,195
2018-04-11T12:15:02.267Z,195
2018-04-11T12:16:02.022Z,195
2018-04-11T12:17:02.276Z,195
2018-04-11T12:18:02.281Z,190
2018-04-11T12:19:02.829Z,190
2018-04-11T12:20:02.277Z,190
2018-04-11T12:21:02.037Z,190
2018-04-11T12:22:02.040Z,190
2018-04-11T12:23:02.574Z,190
2018-04-11T12:24:02.294Z,190
2018-04-11T12:25:02.344Z,190
2018-04-11T12:26:02.301Z,190
2018-04-11T12:27:02.548Z,190
2018-04-11T12:28:02.336Z,190
2018-04-11T12:29:02.037Z,190
2018-04-11T12:30:02.295Z,190
2018-04-11T12:31:02.048Z,190
2018-04-11T12:32:02.640Z,190
2018-04-11T12:33:02.318Z,185
2018-04-11T12:34:02.057Z,190
2018-04-11T12:35:02.574Z,185
2018-04-11T12:36:02.058Z,185
2018-04-11T12:37:02.334Z,185
2018-04-11T12:38:02.552Z,185
2018-04-11T12:39:03.605Z,185
2018-04-11T12:40:02.121Z,185
2018-04-11T12:41:02.091Z,185
2018-04-11T12:42:02.312Z,190
2018-04-11T12:43:02.565Z,185
2018-04-11T12:44:02.077Z,185
2018-04-11T12:45:02.319Z,190
2018-04-11T12:46:02.568Z,190
2018-04-11T12:47:02.083Z,190
2018-04-11T12:48:02.343Z,190
2018-04-11T12:49:02.569Z,190
2018-04-11T12:50:02.082Z,190
2018-04-11T12:51:02.645Z,190
2018-04-11T12:52:02.576Z,195
2018-04-11T12:53:02.082Z,195
2018-04-11T12:54:02.625Z,195
2018-04-11T12:55:02.325Z,200
2018-04-11T12:56:02.091Z,200
2018-04-11T12:57:02.591Z,200
2018-04-11T12:58:02.340Z,205
2018-04-11T12:59:02.374Z,205
2018-04-11T13:00:02.617Z,210
2018-04-11T13:01:02.409Z,210
2018-04-11T13:02:02.620Z,215
2018-04-11T13:03:02.337Z,215
2018-04-11T13:04:02.088Z,215
2018-04-11T13:05:02.356Z,215
2018-04-11T13:06:02.132Z,215
2018-04-11T13:07:02.101Z,215
2018-04-11T13:08:02.356Z,215
2018-04-11T13:09:08.354Z,215
2018-04-11T13:10:02.375Z,215
2018-04-11T13:11:02.413Z,215
2018-04-11T13:12:02.641Z,220
2018-04-11T13:13:02.114Z,215
2018-04-11T13:14:02.648Z,220
2018-04-11T13:15:02.630Z,220
2018-04-11T13:16:02.180Z,215
2018-04-11T13:17:02.404Z,215
2018-04-11T13:18:02.115Z,215
2018-04-11T13:19:02.141Z,210
2018-04-11T13:20:02.631Z,210
2018-04-11T13:21:02.383Z,210
2018-04-11T13:22:02.380Z,210
2018-04-11T13:23:02.122Z,210
2018-04-11T13:24:01.877Z,210
2018-04-11T13:25:02.464Z,210
2018-04-11T13:26:02.390Z,205
2018-04-11T13:27:02.400Z,205
2018-04-11T13:28:02.399Z,210
2018-04-11T13:29:02.393Z,205
2018-04-11T13:30:02.403Z,205
2018-04-11T13:31:02.639Z,205
2018-04-11T13:32:01.640Z,205
2018-04-11T13:33:02.653Z,205
2018-04-11T13:34:02.652Z,205
2018-04-11T13:35:02.649Z,210
2018-04-11T13:36:02.395Z,210
2018-04-11T13:37:02.146Z,205
2018-04-11T13:38:02.156Z,205
2018-04-11T13:39:02.185Z,205
2018-04-11T13:40:03.788Z,185
2018-04-11T13:41:02.179Z,170
2018-04-11T13:42:02.157Z,170
2018-04-11T13:43:02.440Z,170
2018-04-11T13:44:02.184Z,170
2018-04-11T13:45:02.503Z,175
2018-04-11T13:46:02.676Z,190
2018-04-11T13:47:02.458Z,175
2018-04-11T13:48:02.678Z,175
2018-04-11T13:49:02.669Z,175
2018-04-11T13:50:02.438Z,180
2018-04-11T13:51:02.686Z,190
2018-04-11T13:52:02.179Z,215
2018-04-11T13:53:02.431Z,215
2018-04-11T13:54:02.711Z,240
2018-04-11T13:55:05.403Z,230
2018-04-11T13:56:02.446Z,230
2018-04-11T13:57:02.694Z,210
2018-04-11T13:58:02.442Z,210
2018-04-11T13:59:02.447Z,215
2018-04-11T14:00:02.208Z,215
2018-04-11T14:01:02.740Z,235
2018-04-11T14:02:02.199Z,260
2018-04-11T14:03:02.213Z,230
2018-04-11T14:04:02.460Z,255
2018-04-11T14:05:02.473Z,270
2018-04-11T14:06:02.232Z,235
2018-04-11T14:07:02.503Z,245
2018-04-11T14:08:02.507Z,235
2018-04-11T14:09:01.968Z,235
2018-04-11T14:10:05.176Z,230
2018-04-11T14:11:02.302Z,230
2018-04-11T14:12:02.227Z,245
2018-04-11T14:13:02.295Z,270
2018-04-11T14:14:02.235Z,270
2018-04-11T14:15:02.497Z,255
2018-04-11T14:16:02.495Z,245
2018-04-11T14:17:02.267Z,235
2018-04-11T14:18:02.509Z,225
2018-04-11T14:19:02.531Z,220
2018-04-11T14:20:02.263Z,220
2018-04-11T14:21:02.264Z,195
2018-04-11T14:22:02.498Z,210
2018-04-11T14:23:02.777Z,195
2018-04-11T14:24:02.757Z,200
2018-04-11T14:25:02.793Z,210
2018-04-11T14:26:02.515Z,225
2018-04-11T14:27:02.509Z,230
2018-04-11T14:28:02.277Z,225
2018-04-11T14:29:02.796Z,225
2018-04-11T14:30:02.792Z,225
2018-04-11T14:31:02.536Z,220
2018-04-11T14:32:02.285Z,220
2018-04-11T14:33:02.042Z,205
2018-04-11T14:34:02.538Z,185
2018-04-11T14:35:02.789Z,185
2018-04-11T14:36:02.562Z,180
2018-04-11T14:37:02.405Z,180
2018-04-11T14:38:02.799Z,175
2018-04-11T14:39:02.556Z,170
2018-04-11T14:40:08.290Z,170
2018-04-11T14:41:02.564Z,175
2018-04-11T14:42:02.583Z,180
2018-04-11T14:43:02.801Z,190
2018-04-11T14:44:02.564Z,190
2018-04-11T14:45:02.628Z,200
2018-04-11T14:46:02.574Z,210
2018-04-11T14:47:02.826Z,220
2018-04-11T14:48:02.356Z,225
2018-04-11T14:49:02.832Z,230
2018-04-11T14:50:02.831Z,245
2018-04-11T14:51:02.587Z,255
2018-04-11T14:52:02.851Z,250